Time;durP1;ratioP1;P1;durP2;ratioP2;P2;SDS_P1;SDS_P2;PMS_P1;PMS_P2;Temp;Humidity;BMP_temperature;BMP_pressure;BME280_temperature;BME280_humidity;BME280_pressure;Samples;Min_cycle;Max_cycle;Signal;HPM_P1;HPM_P2
2022/04/17 00:00:11;;;;;;;52.00;33.75;;;4.10;99.90;;;;;;6158106;23;20075;-86
2022/04/17 00:02:37;;;;;;;50.67;29.65;;;4.30;99.90;;;;;;6158858;23;20021;-86
2022/04/17 00:05:05;;;;;;;50.30;30.02;;;4.20;99.90;;;;;;6185129;23;20027;-86
2022/04/17 00:07:31;;;;;;;53.35;31.58;;;4.20;99.90;;;;;;6184612;23;20021;-86
2022/04/17 00:09:57;;;;;;;51.70;32.13;;;4.10;99.90;;;;;;6184606;23;20021;-86
2022/04/17 00:12:24;;;;;;;59.00;33.88;;;5.00;99.90;;;;;;6184732;23;20447;-86
2022/04/17 00:14:50;;;;;;;51.78;31.80;;;4.90;99.90;;;;;;6184893;23;20028;-86
2022/04/17 00:17:17;;;;;;;53.22;32.75;;;4.20;99.90;;;;;;6158548;23;20076;-86
2022/04/17 00:19:42;;;;;;;52.80;31.40;;;3.90;99.90;;;;;;6185213;23;20017;-86
2022/04/17 00:22:08;;;;;;;59.30;33.95;;;5.10;99.90;;;;;;6184940;23;20025;-86
2022/04/17 00:24:34;;;;;;;56.45;33.33;;;3.50;99.90;;;;;;6184696;23;20092;-86
2022/04/17 00:27:00;;;;;;;54.88;33.25;;;3.80;99.90;;;;;;6158174;23;20057;-86
2022/04/17 00:29:29;;;;;;;56.45;34.00;;;3.30;99.90;;;;;;6184496;23;20032;-86
2022/04/17 00:31:58;;;;;;;56.33;34.13;;;4.80;99.90;;;;;;6184942;23;20024;-85
2022/04/17 00:34:25;;;;;;;62.92;37.00;;;4.00;99.90;;;;;;6184201;23;20099;-86
2022/04/17 00:36:50;;;;;;;66.00;38.30;;;3.70;99.90;;;;;;6158401;23;20029;-86
2022/04/17 00:39:16;;;;;;;64.57;38.72;;;3.40;99.90;;;;;;6184734;23;20459;-86
2022/04/17 00:41:42;;;;;;;66.93;39.28;;;4.90;99.90;;;;;;6158479;23;20021;-86
2022/04/17 00:44:11;;;;;;;71.13;40.40;;;4.90;99.90;;;;;;6184676;23;20101;-85
2022/04/17 00:46:38;;;;;;;77.03;41.95;;;3.90;99.90;;;;;;6157952;23;20051;-85
2022/04/17 00:49:04;;;;;;;77.32;43.88;;;4.10;99.90;;;;;;6184711;23;20032;-86
2022/04/17 00:51:31;;;;;;;70.20;42.00;;;3.50;99.90;;;;;;6184860;23;20024;-86
2022/04/17 00:53:57;;;;;;;73.85;42.58;;;3.40;99.90;;;;;;6184939;23;20017;-86
2022/04/17 00:56:25;;;;;;;76.35;44.35;;;4.00;99.90;;;;;;6184657;23;20071;-85
2022/04/17 00:58:51;;;;;;;78.18;46.17;;;3.40;99.90;;;;;;6158566;23;20032;-85
2022/04/17 01:01:17;;;;;;;73.10;43.15;;;3.30;99.90;;;;;;6157921;23;20029;-86
2022/04/17 01:03:43;;;;;;;75.65;44.92;;;3.30;99.90;;;;;;6158140;23;20032;-86
2022/04/17 01:06:09;;;;;;;67.57;41.20;;;3.70;99.90;;;;;;6184525;23;20399;-86
2022/04/17 01:08:41;;;;;;;69.50;41.50;;;3.90;99.90;;;;;;6184116;23;20066;-86
2022/04/17 01:11:07;;;;;;;68.10;41.25;;;3.90;99.90;;;;;;6159126;23;20021;-86
2022/04/17 01:13:33;;;;;;;65.55;39.47;;;4.10;99.90;;;;;;6160127;23;20087;-86
2022/04/17 01:16:03;;;;;;;83.10;44.35;;;3.40;99.90;;;;;;6186415;23;20023;-85
2022/04/17 01:18:29;;;;;;;83.55;44.53;;;3.40;99.90;;;;;;6159530;23;20483;-85
2022/04/17 01:20:54;;;;;;;68.95;41.50;;;3.60;99.90;;;;;;6186763;23;20025;-86
2022/04/17 01:28:49;;;;;;;69.75;41.13;;;4.20;99.90;;;;;;6186085;23;20025;-86
2022/04/17 01:31:14;;;;;;;75.03;42.75;;;3.30;99.90;;;;;;6186802;23;20075;-85
2022/04/17 01:33:40;;;;;;;79.53;43.60;;;3.30;99.90;;;;;;6159916;23;20163;-85
2022/04/17 01:36:05;;;;;;;78.72;45.28;;;3.30;99.90;;;;;;6186495;23;20092;-86
2022/04/17 01:38:31;;;;;;;76.45;44.88;;;3.30;99.90;;;;;;6186292;23;20321;-86
2022/04/17 01:40:57;;;;;;;73.50;45.70;;;3.20;99.90;;;;;;6186365;23;20347;-86
2022/04/17 01:43:22;;;;;;;78.57;46.78;;;3.20;99.90;;;;;;6159320;23;20025;-86
2022/04/17 01:45:48;;;;;;;70.70;44.40;;;3.20;99.90;;;;;;6159961;23;20076;-86
2022/04/17 01:48:14;;;;;;;78.75;45.20;;;3.10;99.90;;;;;;6159296;23;20032;-84
2022/04/17 01:50:39;;;;;;;67.68;41.42;;;3.00;99.90;;;;;;6159764;23;20104;-86
2022/04/17 01:53:05;;;;;;;77.78;45.20;;;3.90;99.90;;;;;;6160032;23;20122;-85
2022/04/17 01:55:31;;;;;;;79.95;45.08;;;4.30;99.90;;;;;;6186233;23;20025;-86
2022/04/17 01:57:57;;;;;;;75.32;44.83;;;3.30;99.90;;;;;;6186257;23;20425;-86
2022/04/17 02:00:23;;;;;;;72.57;43.42;;;4.00;99.90;;;;;;6159507;23;20351;-86
2022/04/17 02:02:48;;;;;;;71.05;43.60;;;3.30;99.90;;;;;;6159577;23;20025;-86
2022/04/17 02:05:15;;;;;;;74.40;44.92;;;3.00;99.90;;;;;;6186255;23;20020;-85
2022/04/17 02:07:41;;;;;;;73.95;46.75;;;2.60;99.90;;;;;;6154267;23;20036;-86
2022/04/17 02:10:07;;;;;;;80.75;46.70;;;2.80;99.90;;;;;;6154718;23;20407;-86
2022/04/17 02:12:33;;;;;;;76.10;44.88;;;2.90;99.90;;;;;;6156120;23;20017;-85
2022/04/17 02:14:59;;;;;;;73.13;41.78;;;2.80;99.90;;;;;;6129631;23;20028;-86
2022/04/17 02:17:25;;;;;;;72.72;40.55;;;3.90;99.90;;;;;;6156494;23;20340;-86
2022/04/17 02:19:51;;;;;;;71.25;40.65;;;3.40;99.90;;;;;;6156220;23;20037;-87
2022/04/17 02:22:17;;;;;;;73.70;40.72;;;3.10;99.90;;;;;;6129687;23;20026;-86
2022/04/17 02:24:45;;;;;;;63.45;37.22;;;2.80;99.90;;;;;;6155255;23;20361;-86
2022/04/17 02:27:11;;;;;;;64.50;39.20;;;2.80;99.90;;;;;;6129698;23;20039;-85
2022/04/17 02:29:37;;;;;;;62.72;37.92;;;3.30;99.90;;;;;;6130057;23;20500;-86
2022/04/17 02:32:03;;;;;;;71.97;41.35;;;4.30;99.90;;;;;;6129647;23;20033;-85
2022/04/17 02:34:28;;;;;;;59.13;36.90;;;2.90;99.90;;;;;;6156071;23;20022;-86
2022/04/17 02:36:54;;;;;;;60.47;36.88;;;2.90;99.90;;;;;;6129608;23;20535;-85
2022/04/17 02:39:20;;;;;;;64.75;38.15;;;3.70;99.90;;;;;;6155874;23;20100;-86
2022/04/17 02:41:45;;;;;;;59.38;37.63;;;2.30;99.90;;;;;;6156163;23;20028;-86
2022/04/17 02:44:11;;;;;;;60.08;35.45;;;2.60;99.90;;;;;;6130009;23;20025;-85
2022/04/17 02:49:21;;;;;;;55.45;31.50;;;3.70;99.90;;;;;;6156059;23;20038;-85
2022/04/17 02:51:46;;;;;;;54.70;31.88;;;2.80;99.90;;;;;;6155729;23;20025;-84
2022/04/17 02:54:12;;;;;;;60.15;35.25;;;4.00;99.90;;;;;;6156048;23;20028;-84
2022/04/17 02:56:38;;;;;;;57.47;34.30;;;2.70;99.90;;;;;;6155718;23;20021;-87
2022/04/17 02:59:03;;;;;;;58.38;33.10;;;3.10;99.90;;;;;;6155250;23;20023;-86
2022/04/17 03:06:57;;;;;;;51.20;31.92;;;2.60;99.90;;;;;;6155834;23;20153;-85
2022/04/17 03:09:23;;;;;;;53.92;30.70;;;3.40;99.90;;;;;;6181261;23;20048;-86
2022/04/17 03:11:49;;;;;;;49.92;29.60;;;2.70;99.90;;;;;;6185194;23;20036;-85
2022/04/17 03:14:15;;;;;;;48.58;29.15;;;2.70;99.90;;;;;;6185794;23;20100;-86
2022/04/17 03:16:40;;;;;;;50.40;30.85;;;2.50;99.90;;;;;;6185792;23;20096;-85
2022/04/17 03:19:06;;;;;;;43.78;26.98;;;3.10;99.90;;;;;;6159222;23;20033;-86
2022/04/17 03:21:33;;;;;;;46.72;27.58;;;2.60;99.90;;;;;;6185713;23;20088;-85
2022/04/17 03:23:58;;;;;;;41.80;28.25;;;2.80;99.90;;;;;;6185190;23;20382;-84
2022/04/17 03:26:24;;;;;;;45.85;28.85;;;3.30;99.90;;;;;;6185251;23;20052;-84
2022/04/17 03:28:54;;;;;;;43.80;29.63;;;2.60;99.90;;;;;;6183192;23;20029;-85
2022/04/17 03:31:20;;;;;;;49.58;29.60;;;2.50;99.90;;;;;;6185603;23;20021;-85
2022/04/17 03:33:45;;;;;;;45.67;28.05;;;2.50;99.90;;;;;;6158675;23;20091;-86
2022/04/17 03:36:12;;;;;;;45.83;27.45;;;2.30;99.90;;;;;;6185532;23;20028;-85
2022/04/17 03:38:38;;;;;;;54.42;31.05;;;2.40;99.90;;;;;;6185381;23;20017;-85
2022/04/17 03:41:03;;;;;;;52.60;31.50;;;2.40;99.90;;;;;;6185021;23;20740;-84
2022/04/17 03:43:29;;;;;;;48.40;29.85;;;2.40;99.90;;;;;;6158695;23;20021;-85
2022/04/17 03:45:55;;;;;;;46.70;30.42;;;2.40;99.90;;;;;;6158676;23;20017;-84
2022/04/17 03:48:20;;;;;;;51.92;30.75;;;2.40;99.90;;;;;;6185271;23;20035;-84
2022/04/17 03:50:47;;;;;;;49.42;28.90;;;2.30;99.90;;;;;;6158803;23;20028;-83
2022/04/17 03:53:13;;;;;;;53.58;31.50;;;2.50;99.90;;;;;;6185334;23;20104;-85
2022/04/17 03:55:38;;;;;;;50.25;30.30;;;2.30;99.90;;;;;;6184949;23;20044;-84
2022/04/17 03:58:04;;;;;;;46.83;29.35;;;2.20;99.90;;;;;;6184986;23;20029;-85
2022/04/17 04:00:30;;;;;;;46.92;27.85;;;2.20;99.90;;;;;;6184892;23;20080;-85
2022/04/17 04:02:56;;;;;;;46.45;28.38;;;2.20;99.90;;;;;;6185323;23;20048;-85
2022/04/17 04:05:21;;;;;;;46.80;27.23;;;2.10;99.90;;;;;;6158302;23;20017;-86
2022/04/17 04:07:49;;;;;;;42.60;26.30;;;2.10;99.90;;;;;;6184995;23;20348;-85
2022/04/17 04:10:17;;;;;;;38.60;24.23;;;2.10;99.90;;;;;;6185078;23;20017;-85
2022/04/17 04:12:43;;;;;;;37.78;22.95;;;2.10;99.90;;;;;;6155033;23;20081;-85
2022/04/17 04:15:19;;;;;;;33.33;22.23;;;2.10;99.90;;;;;;6158508;23;20021;-85
2022/04/17 04:17:47;;;;;;;34.70;21.63;;;2.10;99.90;;;;;;6184661;23;20048;-85
2022/04/17 04:20:13;;;;;;;33.13;19.27;;;2.10;99.90;;;;;;6184747;23;20025;-84
2022/04/17 04:22:39;;;;;;;30.85;19.08;;;2.10;99.90;;;;;;6158576;23;20150;-84
2022/04/17 04:25:05;;;;;;;31.73;18.08;;;2.00;99.90;;;;;;6184607;23;20092;-84
2022/04/17 04:30:15;;;;;;;28.00;17.85;;;2.00;99.90;;;;;;6184668;23;20039;-86
2022/04/17 04:32:52;;;;;;;30.45;17.35;;;2.10;99.90;;;;;;6183250;23;20522;-86
2022/04/17 04:35:33;;;;;;;26.73;15.90;;;2.10;99.90;;;;;;6184972;23;20025;-84
2022/04/17 04:38:00;;;;;;;30.48;15.32;;;2.00;99.90;;;;;;6158545;23;20064;-86
2022/04/17 04:40:28;;;;;;;23.88;14.70;;;2.00;99.90;;;;;;6184754;23;20009;-86
2022/04/17 04:43:01;;;;;;;25.50;15.77;;;2.00;99.90;;;;;;6184982;23;20017;-86
2022/04/17 04:48:11;;;;;;;29.23;15.88;;;2.00;99.90;;;;;;6184760;23;20031;-85
2022/04/17 04:50:37;;;;;;;25.35;15.43;;;1.90;99.90;;;;;;6158530;23;20020;-85
2022/04/17 04:53:03;;;;;;;23.02;13.43;;;2.00;99.90;;;;;;6184444;23;20092;-85
2022/04/17 04:55:29;;;;;;;30.20;14.07;;;2.50;99.90;;;;;;6184329;23;20032;-85
2022/04/17 04:57:54;;;;;;;26.92;14.98;;;2.10;99.90;;;;;;6184529;23;20025;-86
2022/04/17 05:00:21;;;;;;;23.60;13.63;;;1.90;99.90;;;;;;6184350;23;20017;-86
2022/04/17 05:02:46;;;;;;;24.42;14.48;;;2.10;99.90;;;;;;6158202;23;20456;-85
2022/04/17 05:05:12;;;;;;;24.65;13.32;;;2.60;99.90;;;;;;6184839;23;20013;-86
2022/04/17 05:07:38;;;;;;;21.25;12.30;;;2.70;99.90;;;;;;6185243;23;20076;-86
2022/04/17 05:10:06;;;;;;;25.45;13.95;;;2.20;99.90;;;;;;6183393;23;20360;-84
2022/04/17 05:12:32;;;;;;;22.75;12.65;;;2.10;99.90;;;;;;6184223;23;20095;-85
2022/04/17 05:14:58;;;;;;;21.33;13.07;;;2.70;99.90;;;;;;6184740;23;20028;-85
2022/04/17 05:17:24;;;;;;;24.23;12.70;;;1.90;99.90;;;;;;6157944;23;20017;-85
2022/04/17 05:19:50;;;;;;;25.80;12.90;;;2.10;99.90;;;;;;6158144;23;20021;-85
2022/04/17 05:22:17;;;;;;;22.40;12.57;;;1.90;99.90;;;;;;6184843;23;20021;-85
2022/04/17 05:24:44;;;;;;;22.00;13.00;;;1.60;99.90;;;;;;6158014;23;20029;-85
2022/04/17 05:27:10;;;;;;;28.27;13.25;;;2.80;99.90;;;;;;6184769;23;20021;-85
2022/04/17 05:29:35;;;;;;;23.73;12.63;;;3.20;99.90;;;;;;6157865;23;20021;-85
2022/04/17 05:32:02;;;;;;;22.25;13.30;;;2.30;99.90;;;;;;6158172;23;20403;-85
2022/04/17 05:34:28;;;;;;;21.60;12.88;;;2.30;99.90;;;;;;6158347;23;20104;-84
2022/04/17 05:36:54;;;;;;;24.25;13.18;;;2.30;99.90;;;;;;6158579;23;20045;-86
2022/04/17 05:39:19;;;;;;;23.13;12.32;;;3.20;99.90;;;;;;6158175;23;20021;-85
2022/04/17 05:41:46;;;;;;;23.38;12.70;;;2.20;99.90;;;;;;6182832;23;20104;-85
2022/04/17 05:44:12;;;;;;;20.35;11.70;;;2.30;99.90;;;;;;6184772;23;20032;-85
2022/04/17 05:46:41;;;;;;;20.17;11.45;;;2.30;99.90;;;;;;6184641;23;20024;-85
2022/04/17 05:49:07;;;;;;;23.23;12.45;;;2.40;99.90;;;;;;6157500;23;20028;-85
2022/04/17 05:51:34;;;;;;;24.10;13.45;;;2.50;99.90;;;;;;6184704;23;20372;-85
2022/04/17 05:54:01;;;;;;;23.23;12.02;;;3.20;99.90;;;;;;6157637;23;20029;-85
2022/04/17 05:56:28;;;;;;;23.67;12.93;;;3.60;99.90;;;;;;6157703;23;20017;-85
2022/04/17 05:58:54;;;;;;;20.42;12.85;;;3.00;99.90;;;;;;6185797;23;20017;-85
2022/04/17 06:01:19;;;;;;;21.15;11.93;;;4.00;99.90;;;;;;6159792;23;20401;-85
2022/04/17 06:03:45;;;;;;;20.73;11.32;;;4.50;99.90;;;;;;6184104;23;20021;-86
2022/04/17 06:06:11;;;;;;;19.15;11.13;;;4.10;99.90;;;;;;6186598;23;20091;-85
2022/04/17 06:08:38;;;;;;;21.48;11.48;;;4.70;99.90;;;;;;6185799;23;20024;-85
2022/04/17 06:11:03;;;;;;;19.02;12.25;;;4.40;99.90;;;;;;6186120;23;20017;-84
2022/04/17 06:13:29;;;;;;;20.00;12.30;;;3.70;99.90;;;;;;6159790;23;20343;-85
2022/04/17 06:15:54;;;;;;;20.27;12.05;;;3.00;99.90;;;;;;6186045;23;20063;-84
2022/04/17 06:18:20;;;;;;;24.27;13.68;;;3.90;99.90;;;;;;6159374;23;20486;-86
2022/04/17 06:20:46;;;;;;;21.40;11.00;;;4.10;99.90;;;;;;6184428;23;20028;-85
2022/04/17 06:23:13;;;;;;;19.90;11.50;;;3.80;99.90;;;;;;6159754;23;20064;-85
2022/04/17 06:25:38;;;;;;;20.45;11.63;;;4.90;99.90;;;;;;6159030;23;20029;-85
2022/04/17 06:28:04;;;;;;;20.13;12.00;;;5.60;99.90;;;;;;6185454;23;20112;-84
2022/04/17 06:30:30;;;;;;;23.20;12.88;;;4.90;99.90;;;;;;6159273;23;20024;-85
2022/04/17 06:32:56;;;;;;;17.40;11.02;;;5.70;99.90;;;;;;6185844;23;20443;-87
2022/04/17 06:35:22;;;;;;;20.60;12.30;;;5.30;99.90;;;;;;6185725;23;20048;-84
2022/04/17 06:37:53;;;;;;;28.70;15.40;;;7.10;99.90;;;;;;6185460;23;20075;-85
2022/04/17 06:40:37;;;;;;;27.23;15.50;;;5.60;99.90;;;;;;6188339;23;20021;-85
2022/04/17 06:43:08;;;;;;;28.85;13.20;;;6.60;99.90;;;;;;6185424;23;20079;-84
2022/04/17 06:45:37;;;;;;;19.30;12.57;;;5.90;99.90;;;;;;6159243;23;20456;-85
2022/04/17 06:48:17;;;;;;;23.90;13.27;;;5.30;99.90;;;;;;6159297;23;20324;-84
2022/04/17 06:50:44;;;;;;;29.90;16.95;;;6.20;99.90;;;;;;6185924;23;20028;-84
2022/04/17 06:53:10;;;;;;;25.45;15.30;;;7.90;99.90;;;;;;6158814;23;20005;-83
2022/04/17 06:55:36;;;;;;;21.08;12.95;;;7.70;99.90;;;;;;6185955;23;20343;-84
2022/04/17 06:58:01;;;;;;;27.02;14.85;;;6.80;99.90;;;;;;6185668;23;20025;-87
2022/04/17 07:00:27;;;;;;;24.92;14.57;;;7.30;99.90;;;;;;6184967;23;20093;-86
2022/04/17 07:02:53;;;;;;;20.67;11.55;;;6.10;99.90;;;;;;6185504;23;20033;-85
2022/04/17 07:05:18;;;;;;;18.20;10.82;;;7.70;99.90;;;;;;6158487;23;20022;-85
2022/04/17 07:07:44;;;;;;;17.58;11.30;;;8.40;99.90;;;;;;6158844;23;20025;-84
2022/04/17 07:10:11;;;;;;;23.35;13.57;;;9.00;99.90;;;;;;6185217;23;20048;-85
2022/04/17 07:12:37;;;;;;;15.65;10.13;;;8.70;99.90;;;;;;6159465;23;20017;-89
2022/04/17 07:15:06;;;;;;;18.67;10.00;;;7.90;99.90;;;;;;6134285;23;20340;-84
2022/04/17 07:17:39;;;;;;;16.85;10.50;;;8.10;99.90;;;;;;6185757;23;20017;-83
2022/04/17 07:20:06;;;;;;;16.25;9.25;;;8.30;99.90;;;;;;6185084;23;20060;-84
2022/04/17 07:22:33;;;;;;;15.27;9.40;;;8.50;99.90;;;;;;6185727;23;20017;-85
2022/04/17 07:25:01;;;;;;;14.23;8.30;;;9.90;99.90;;;;;;6185216;23;20025;-85
2022/04/17 07:27:27;;;;;;;13.50;7.60;;;9.30;99.90;;;;;;6158672;23;20459;-85
2022/04/17 07:29:53;;;;;;;14.98;9.45;;;9.60;99.90;;;;;;6185190;23;20095;-85
2022/04/17 07:32:19;;;;;;;13.15;7.57;;;9.20;99.90;;;;;;6185401;23;20104;-84
2022/04/17 07:34:45;;;;;;;11.35;7.63;;;9.70;99.90;;;;;;6158735;23;20025;-84
2022/04/17 07:37:11;;;;;;;16.13;7.93;;;9.90;99.90;;;;;;6185257;23;20087;-85
2022/04/17 07:39:36;;;;;;;16.48;8.48;;;9.70;99.90;;;;;;6185718;23;20017;-85
2022/04/17 07:42:03;;;;;;;17.98;9.85;;;10.50;99.90;;;;;;6183372;23;20025;-84
2022/04/17 07:44:29;;;;;;;12.93;7.88;;;10.00;99.90;;;;;;6185490;23;20067;-85
2022/04/17 07:46:56;;;;;;;12.52;8.45;;;11.40;99.90;;;;;;6185274;23;20025;-85
2022/04/17 07:49:26;;;;;;;11.77;6.85;;;10.30;99.90;;;;;;6158559;23;20027;-85
2022/04/17 07:51:51;;;;;;;12.43;7.22;;;11.30;99.90;;;;;;6185247;23;20343;-85
2022/04/17 07:54:17;;;;;;;10.05;6.15;;;11.20;99.90;;;;;;6158528;23;20103;-85
2022/04/17 07:56:43;;;;;;;10.30;6.22;;;10.80;99.90;;;;;;6185210;23;20096;-85
2022/04/17 07:59:08;;;;;;;8.27;5.50;;;11.00;99.90;;;;;;6184810;23;20096;-84
2022/04/17 08:01:39;;;;;;;7.55;4.95;;;11.90;99.90;;;;;;6185218;23;20438;-85
2022/04/17 08:04:05;;;;;;;7.13;4.20;;;11.40;99.90;;;;;;6185252;23;20028;-86
2022/04/17 08:06:31;;;;;;;7.05;4.10;;;11.50;99.90;;;;;;6184884;23;20025;-84
2022/04/17 08:08:57;;;;;;;7.82;4.80;;;11.60;99.90;;;;;;6184755;23;20028;-85
2022/04/17 08:11:23;;;;;;;11.00;4.63;;;11.80;99.90;;;;;;6184774;23;20017;-85
2022/04/17 08:13:49;;;;;;;6.82;4.38;;;12.30;99.90;;;;;;6185153;23;20021;-85
2022/04/17 08:16:16;;;;;;;6.13;3.67;;;12.00;99.90;;;;;;6184660;23;20514;-84
2022/04/17 08:18:42;;;;;;;7.10;4.35;;;13.10;99.90;;;;;;6158498;23;20028;-86
2022/04/17 08:21:07;;;;;;;8.52;4.30;;;13.00;99.90;;;;;;6184492;23;20329;-84
2022/04/17 08:23:37;;;;;;;8.40;4.32;;;12.50;99.90;;;;;;6184879;23;20025;-84
2022/04/17 08:26:06;;;;;;;5.63;4.20;;;12.70;99.90;;;;;;6184613;23;20029;-85
2022/04/17 08:28:32;;;;;;;6.43;3.65;;;12.80;99.90;;;;;;6184780;23;20021;-86
2022/04/17 08:30:58;;;;;;;6.70;3.85;;;13.80;99.90;;;;;;6184372;23;20021;-84
2022/04/17 08:33:26;;;;;;;5.63;3.45;;;13.10;99.90;;;;;;6184833;23;20079;-85
2022/04/17 08:35:54;;;;;;;7.00;3.55;;;13.10;99.90;;;;;;6158292;23;20025;-85
2022/04/17 08:38:21;;;;;;;5.32;3.85;;;13.90;99.90;;;;;;6184907;23;20021;-85
2022/04/17 08:40:49;;;;;;;6.20;3.95;;;13.60;99.90;;;;;;6184490;23;20020;-85
2022/04/17 08:43:18;;;;;;;5.10;3.55;;;13.90;99.30;;;;;;6184902;23;20380;-84
2022/04/17 08:45:43;;;;;;;4.90;3.13;;;13.80;98.80;;;;;;6184878;23;20321;-85
2022/04/17 08:48:09;;;;;;;5.32;3.13;;;14.10;99.70;;;;;;6184982;23;20028;-86
2022/04/17 08:50:35;;;;;;;4.55;3.00;;;14.10;97.90;;;;;;6182839;23;20029;-86
2022/04/17 08:53:02;;;;;;;7.40;3.75;;;14.20;97.60;;;;;;6182954;23;20025;-86
2022/04/17 08:55:29;;;;;;;7.38;3.40;;;14.20;97.30;;;;;;6184376;23;20065;-86
2022/04/17 08:57:54;;;;;;;5.97;3.05;;;14.40;96.70;;;;;;6184820;23;20139;-86
2022/04/17 09:00:20;;;;;;;4.53;2.80;;;14.50;96.50;;;;;;6133432;23;20045;-83
2022/04/17 09:02:47;;;;;;;4.72;2.65;;;14.70;96.30;;;;;;6184682;23;20021;-83
2022/04/17 09:05:17;;;;;;;3.97;2.75;;;14.80;96.50;;;;;;6184910;23;20017;-83
2022/04/17 09:07:53;;;;;;;4.97;3.25;;;15.00;96.20;;;;;;6183549;23;20027;-86
2022/04/17 09:10:31;;;;;;;4.68;2.90;;;15.00;93.50;;;;;;6184345;23;20028;-84
2022/04/17 09:12:59;;;;;;;4.40;2.78;;;15.10;93.80;;;;;;6184454;23;20053;-86
2022/04/17 09:15:34;;;;;;;4.53;2.80;;;15.20;93.50;;;;;;6157677;23;20032;-86
2022/04/17 09:18:01;;;;;;;7.13;3.53;;;15.30;93.60;;;;;;6158041;23;20079;-85
2022/04/17 09:20:28;;;;;;;5.43;2.90;;;15.50;93.50;;;;;;6157577;23;20036;-89
2022/04/17 09:22:56;;;;;;;5.53;2.70;;;15.60;93.30;;;;;;6183840;23;20024;-88
2022/04/17 09:25:23;;;;;;;4.55;2.97;;;15.70;92.10;;;;;;6184476;23;20021;-90
2022/04/17 09:28:02;;;;;;;4.18;2.30;;;15.80;89.80;;;;;;6184437;23;20013;-89
2022/04/17 09:30:30;;;;;;;4.90;2.92;;;15.90;90.20;;;;;;6183970;23;20013;-89
2022/04/17 09:32:57;;;;;;;5.93;2.92;;;16.00;89.70;;;;;;6158571;23;20067;-89
2022/04/17 09:35:24;;;;;;;7.32;3.80;;;16.10;86.60;;;;;;6185570;23;20521;-83
2022/04/17 09:37:55;;;;;;;5.10;3.03;;;16.10;86.50;;;;;;6186653;23;20079;-86
2022/04/17 09:40:21;;;;;;;5.65;2.60;;;16.40;85.60;;;;;;6186093;23;20036;-84
2022/04/17 09:42:48;;;;;;;3.78;2.42;;;16.20;85.00;;;;;;6186420;23;20012;-89
2022/04/17 09:45:14;;;;;;;3.28;2.17;;;16.40;83.60;;;;;;6186581;23;20057;-90
2022/04/17 09:47:40;;;;;;;4.50;2.40;;;16.50;83.80;;;;;;6186613;23;20031;-88
2022/04/17 09:50:09;;;;;;;3.95;2.13;;;16.80;82.90;;;;;;6159746;23;20417;-85
2022/04/17 09:52:41;;;;;;;3.13;1.88;;;16.80;81.70;;;;;;6160081;23;20040;-89
2022/04/17 09:55:08;;;;;;;3.30;1.90;;;17.00;83.00;;;;;;6159116;23;20088;-85
2022/04/17 09:57:35;;;;;;;3.47;1.70;;;17.10;79.40;;;;;;6186464;23;20040;-87
2022/04/17 10:00:15;;;;;;;2.97;1.60;;;17.20;79.30;;;;;;6185957;23;20032;-86
2022/04/17 10:02:45;;;;;;;4.72;1.60;;;17.20;76.20;;;;;;6159656;23;20356;-85
2022/04/17 10:05:18;;;;;;;5.07;1.80;;;17.40;73.00;;;;;;6159674;23;20025;-83
2022/04/17 10:07:48;;;;;;;5.47;1.73;;;17.40;69.70;;;;;;6159168;23;20032;-86
2022/04/17 10:10:15;;;;;;;3.58;1.60;;;17.50;71.10;;;;;;6186338;23;20029;-84
2022/04/17 10:12:43;;;;;;;3.05;1.95;;;17.70;76.60;;;;;;6186057;23;20024;-82
2022/04/17 10:15:11;;;;;;;2.97;1.83;;;17.70;68.10;;;;;;6185614;23;20021;-87
2022/04/17 10:17:42;;;;;;;5.10;1.90;;;17.80;68.60;;;;;;6158899;23;20415;-87
2022/04/17 10:20:12;;;;;;;2.15;1.70;;;17.90;69.50;;;;;;6185414;23;20025;-87
2022/04/17 10:22:40;;;;;;;3.92;1.75;;;18.00;66.50;;;;;;6185198;23;20075;-88
2022/04/17 10:25:09;;;;;;;2.47;1.63;;;18.10;67.30;;;;;;6185057;23;20517;-87
2022/04/17 10:27:45;;;;;;;3.30;1.45;;;18.30;68.70;;;;;;6185700;23;20025;-90
2022/04/17 10:30:16;;;;;;;3.15;1.77;;;18.40;68.90;;;;;;6185296;23;20095;-86
2022/04/17 10:33:11;;;;;;;3.42;1.60;;;18.60;64.00;;;;;;6185625;23;20025;-85
2022/04/17 10:35:55;;;;;;;2.28;1.25;;;18.20;63.40;;;;;;6036464;23;20019;-86
2022/04/17 10:38:31;;;;;;;3.47;1.80;;;18.50;64.60;;;;;;6012832;23;20050;-85
2022/04/17 10:40:57;;;;;;;4.85;2.03;;;18.60;63.50;;;;;;6036613;23;20019;-86
2022/04/17 10:43:23;;;;;;;4.30;1.67;;;18.80;63.90;;;;;;6012388;23;20034;-85
2022/04/17 10:46:09;;;;;;;3.60;1.85;;;18.70;63.30;;;;;;6013225;23;20442;-86
2022/04/17 10:48:41;;;;;;;;;;;18.60;62.70;;;;;;6036816;23;20038;-85
2022/04/17 10:51:14;;;;;;;3.22;1.70;;;18.80;64.00;;;;;;6036232;23;20249;-87
2022/04/17 10:54:00;;;;;;;3.72;1.60;;;18.90;58.80;;;;;;6036509;23;20375;-85
2022/04/17 10:56:26;;;;;;;;;;;19.10;63.30;;;;;;6037515;23;20023;-86
2022/04/17 10:58:56;;;;;;;3.20;1.88;;;19.20;61.50;;;;;;6036872;23;19925;-87
2022/04/17 11:01:49;;;;;;;3.67;1.80;;;19.40;60.20;;;;;;6037559;23;20027;-88
2022/04/17 11:04:36;;;;;;;3.88;1.98;;;19.50;60.70;;;;;;6037254;23;20019;-85
2022/04/17 11:07:05;;;;;;;4.97;2.17;;;19.60;58.10;;;;;;6039153;23;20030;-90
2022/04/17 11:09:42;;;;;;;4.00;1.90;;;19.80;59.80;;;;;;6038706;23;20031;-88
2022/04/17 11:12:23;;;;;;;3.58;1.80;;;19.60;61.00;;;;;;6088013;23;20025;-85
2022/04/17 11:14:54;;;;;;;3.28;1.65;;;19.80;59.10;;;;;;6158803;23;20021;-85
2022/04/17 11:17:22;;;;;;;3.75;1.63;;;20.00;58.80;;;;;;6158580;23;20028;-87
2022/04/17 11:19:48;;;;;;;3.92;1.50;;;19.90;57.60;;;;;;6183657;23;20021;-86
2022/04/17 11:22:16;;;;;;;2.22;1.27;;;20.10;57.80;;;;;;6158298;23;20060;-84
2022/04/17 11:24:54;;;;;;;2.25;1.50;;;20.30;58.60;;;;;;6158719;23;20020;-85
2022/04/17 11:27:50;;;;;;;5.00;1.55;;;20.40;58.20;;;;;;6185484;23;20025;-85
2022/04/17 11:30:16;;;;;;;3.20;1.27;;;19.80;51.60;;;;;;6036628;23;20123;-84
2022/04/17 11:32:41;;;;;;;2.70;1.35;;;20.10;54.40;;;;;;6036944;23;20110;-84
2022/04/17 11:35:11;;;;;;;2.60;1.40;;;20.20;52.90;;;;;;6012540;23;20030;-85
2022/04/17 11:37:37;;;;;;;4.15;1.52;;;20.20;56.30;;;;;;6036854;23;20068;-85
2022/04/17 11:40:12;;;;;;;2.13;1.27;;;20.60;56.00;;;;;;6036379;23;20027;-84
2022/04/17 11:42:42;;;;;;;;;;;20.30;56.00;;;;;;6013305;23;20023;-85
2022/04/17 11:45:10;;;;;;;1.90;1.00;;;20.50;53.10;;;;;;6036333;23;20389;-86
2022/04/17 11:47:44;;;;;;;1.88;1.20;;;20.50;56.40;;;;;;6036581;23;20061;-86
2022/04/17 11:50:11;;;;;;;2.08;1.10;;;20.60;51.80;;;;;;6036053;23;20054;-84
2022/04/17 11:52:38;;;;;;;3.33;1.77;;;20.40;52.80;;;;;;6036142;23;20033;-85
2022/04/17 11:55:07;;;;;;;1.92;1.15;;;20.60;54.20;;;;;;6011685;23;20102;-87
2022/04/17 11:57:33;;;;;;;4.38;1.30;;;20.70;53.40;;;;;;6011916;23;20027;-85
2022/04/17 12:00:00;;;;;;;2.72;1.35;;;20.80;52.80;;;;;;6036609;23;20026;-86
2022/04/17 12:02:28;;;;;;;2.63;1.30;;;20.90;52.50;;;;;;6012904;23;20524;-85
2022/04/17 12:05:13;;;;;;;4.15;2.05;;;21.00;52.70;;;;;;6013244;23;20019;-86
2022/04/17 12:07:41;;;;;;;2.92;1.67;;;21.00;50.30;;;;;;6139356;23;20080;-87
2022/04/17 12:10:09;;;;;;;3.78;1.77;;;20.70;51.40;;;;;;6184344;23;20072;-88
2022/04/17 12:12:38;;;;;;;2.50;1.45;;;20.50;50.10;;;;;;6183227;23;20067;-86
2022/04/17 12:15:08;;;;;;;2.33;1.85;;;20.50;52.10;;;;;;6185403;23;20093;-87
2022/04/17 12:17:35;;;;;;;3.03;1.75;;;20.60;53.00;;;;;;6158336;23;20143;-87
2022/04/17 12:20:06;;;;;;;4.00;2.42;;;20.50;52.70;;;;;;6185314;23;20024;-85
2022/04/17 12:22:32;;;;;;;4.85;2.20;;;20.60;53.60;;;;;;6185571;23;20028;-86
2022/04/17 12:24:58;;;;;;;3.45;1.70;;;20.70;52.90;;;;;;6179099;23;20021;-86
2022/04/17 12:27:26;;;;;;;3.85;1.67;;;20.60;53.70;;;;;;6184673;23;20025;-85
2022/04/17 12:29:53;;;;;;;2.72;1.73;;;20.80;52.10;;;;;;6184437;23;20518;-84
2022/04/17 12:32:23;;;;;;;3.20;1.65;;;20.70;51.80;;;;;;6158625;23;20017;-82
2022/04/17 12:34:59;;;;;;;3.30;1.58;;;21.10;53.40;;;;;;6185014;23;20063;-82
2022/04/17 12:37:25;;;;;;;;;;;21.20;52.60;;;;;;6159086;23;20029;-83
2022/04/17 12:39:51;;;;;;;4.65;2.00;;;21.20;49.90;;;;;;6184934;23;19927;-84
2022/04/17 12:42:18;;;;;;;3.55;1.92;;;21.20;51.70;;;;;;6183897;23;20021;-85
2022/04/17 12:44:46;;;;;;;4.15;2.15;;;21.20;49.30;;;;;;6158539;23;20103;-85
2022/04/17 12:47:14;;;;;;;3.03;1.55;;;20.90;50.80;;;;;;6185172;23;20375;-85
2022/04/17 12:49:41;;;;;;;3.53;1.98;;;21.00;52.80;;;;;;6184137;23;20024;-85
2022/04/17 12:52:07;;;;;;;2.58;1.70;;;21.00;52.00;;;;;;6184982;23;20017;-84
2022/04/17 12:54:36;;;;;;;3.00;1.55;;;21.10;51.20;;;;;;6158283;23;20021;-85
2022/04/17 12:57:05;;;;;;;2.83;1.60;;;21.10;51.00;;;;;;6184851;23;20017;-85
2022/04/17 12:59:41;;;;;;;2.60;1.30;;;20.30;51.80;;;;;;6183109;23;20025;-86
2022/04/17 13:02:27;;;;;;;2.42;1.45;;;21.30;50.90;;;;;;6184959;23;20021;-86
2022/04/17 13:04:55;;;;;;;2.95;1.80;;;21.10;51.60;;;;;;6158317;23;20029;-87